Time;durP1;ratioP1;P1;durP2;ratioP2;P2;SDS_P1;SDS_P2;PMS_P1;PMS_P2;Temp;Humidity;BMP_temperature;BMP_pressure;BME280_temperature;BME280_humidity;BME280_pressure;Samples;Min_cycle;Max_cycle;Signal;HPM_P1;HPM_P2
2021/06/01 00:01:19;;;;;;;0.60;0.57;;;12.00;99.90;;;;;;5091732;28;20191;-69
2021/06/01 00:03:46;;;;;;;0.30;0.30;;;11.90;99.90;;;;;;5109793;28;20195;-68
2021/06/01 00:06:12;;;;;;;0.40;0.40;;;12.00;99.90;;;;;;5090647;28;20195;-69
2021/06/01 00:08:39;;;;;;;0.00;0.00;;;11.90;99.90;;;;;;5109342;28;20164;-69
2021/06/01 00:11:06;;;;;;;0.10;0.10;;;11.80;99.90;;;;;;5109596;28;20564;-69
2021/06/01 00:13:32;;;;;;;0.10;0.10;;;11.70;99.90;;;;;;5091422;28;20190;-68
2021/06/01 00:15:58;;;;;;;0.10;0.10;;;11.70;99.90;;;;;;5109660;28;20155;-68
2021/06/01 00:18:24;;;;;;;0.20;0.20;;;11.60;99.90;;;;;;5091337;28;20190;-69
2021/06/01 00:20:50;;;;;;;0.30;0.30;;;11.50;99.90;;;;;;5109662;28;20156;-70
2021/06/01 00:23:16;;;;;;;0.08;0.08;;;11.50;99.90;;;;;;5109499;28;20320;-69
2021/06/01 00:25:42;;;;;;;0.10;0.10;;;11.40;99.90;;;;;;5109595;28;20151;-69
2021/06/01 00:28:08;;;;;;;0.25;0.25;;;11.30;99.90;;;;;;5109547;28;20600;-69
2021/06/01 00:30:34;;;;;;;0.10;0.10;;;11.20;99.90;;;;;;5109448;28;20169;-69
2021/06/01 00:33:00;;;;;;;0.55;0.38;;;11.20;99.90;;;;;;5109549;28;20191;-69
2021/06/01 00:35:26;;;;;;;0.10;0.10;;;11.20;99.90;;;;;;5109499;28;20225;-69
2021/06/01 00:37:52;;;;;;;0.30;0.30;;;11.10;99.90;;;;;;5109451;28;20624;-68
2021/06/01 00:40:18;;;;;;;0.20;0.20;;;11.10;99.90;;;;;;5091201;28;20163;-69
2021/06/01 00:42:44;;;;;;;0.32;0.32;;;11.10;99.90;;;;;;5109324;28;20194;-68
2021/06/01 00:45:17;;;;;;;0.32;0.32;;;11.10;99.90;;;;;;5091100;28;20241;-69
2021/06/01 00:47:43;;;;;;;0.30;0.30;;;11.10;99.90;;;;;;5091057;28;20187;-69
2021/06/01 00:50:10;;;;;;;0.38;0.38;;;11.10;99.90;;;;;;5091515;28;20166;-69
2021/06/01 00:52:36;;;;;;;0.25;0.25;;;11.10;99.90;;;;;;5113438;28;20186;-68
2021/06/01 00:55:04;;;;;;;0.10;0.10;;;11.00;99.90;;;;;;5095226;28;20205;-69
2021/06/01 00:57:30;;;;;;;0.43;0.43;;;10.90;99.90;;;;;;5113417;28;20167;-69
2021/06/01 00:59:58;;;;;;;0.10;0.10;;;10.90;99.90;;;;;;5113327;28;20160;-69
2021/06/01 01:02:26;;;;;;;0.82;0.82;;;10.70;99.90;;;;;;5113138;28;20223;-69
2021/06/01 01:04:53;;;;;;;0.30;0.30;;;10.70;99.90;;;;;;5113205;28;20166;-69
2021/06/01 01:08:32;;;;;;;1.65;0.68;;;10.50;99.90;;;;;;5113151;28;20249;-69
2021/06/01 01:10:21;;;;;;;0.30;0.30;;;10.40;99.90;;;;;;5095184;28;20662;-69
2021/06/01 01:12:51;;;;;;;3.97;2.70;;;10.30;99.90;;;;;;5112914;28;20187;-69
2021/06/01 01:15:20;;;;;;;0.40;0.40;;;10.30;99.90;;;;;;5113038;28;20159;-69
2021/06/01 01:17:56;;;;;;;0.10;0.10;;;10.20;99.90;;;;;;5113004;28;20195;-69
2021/06/01 01:20:54;;;;;;;0.10;0.10;;;10.10;99.90;;;;;;5094701;28;20178;-69
2021/06/01 01:23:21;;;;;;;0.10;0.10;;;9.80;99.90;;;;;;5112915;28;20199;-70
2021/06/01 01:26:14;;;;;;;0.43;0.43;;;9.80;99.90;;;;;;5094544;28;20198;-69
2021/06/01 01:28:58;;;;;;;0.88;0.88;;;9.80;99.90;;;;;;5112826;28;20516;-69
2021/06/01 01:31:30;;;;;;;0.20;0.20;;;9.70;99.90;;;;;;5112731;28;20164;-69
2021/06/01 01:34:00;;;;;;;0.52;0.47;;;9.80;99.90;;;;;;5112738;28;20194;-69
2021/06/01 01:36:29;;;;;;;0.17;0.17;;;9.90;99.90;;;;;;5112831;28;20160;-69
2021/06/01 01:38:58;;;;;;;0.10;0.10;;;9.90;99.90;;;;;;5112479;28;20155;-68
2021/06/01 01:41:24;;;;;;;0.10;0.10;;;9.90;99.90;;;;;;5112595;28;20156;-69
2021/06/01 01:43:52;;;;;;;0.30;0.30;;;9.90;99.90;;;;;;5112233;28;20191;-69
2021/06/01 01:48:59;;;;;;;0.63;0.63;;;9.90;99.90;;;;;;5091958;28;20224;-69
2021/06/01 01:51:41;;;;;;;0.40;0.40;;;9.90;99.90;;;;;;5092092;28;20167;-69
2021/06/01 01:54:11;;;;;;;0.10;0.10;;;10.00;99.90;;;;;;5091982;28;20149;-68
2021/06/01 01:56:41;;;;;;;0.20;0.20;;;10.00;99.90;;;;;;5091362;28;20156;-69
2021/06/01 01:59:11;;;;;;;0.88;0.88;;;10.00;99.90;;;;;;5092020;28;20163;-68
2021/06/01 02:01:39;;;;;;;0.20;0.20;;;10.00;99.90;;;;;;5091472;28;20187;-68
2021/06/01 02:04:06;;;;;;;0.65;0.32;;;10.00;99.90;;;;;;5091746;28;20152;-68
2021/06/01 02:06:33;;;;;;;0.82;0.80;;;10.10;99.90;;;;;;5073457;28;20544;-69
2021/06/01 02:08:59;;;;;;;0.35;0.35;;;10.10;99.90;;;;;;5091749;28;20217;-68
2021/06/01 02:11:26;;;;;;;0.15;0.15;;;10.10;99.90;;;;;;5091636;28;20212;-70
2021/06/01 02:13:58;;;;;;;0.10;0.10;;;10.10;99.90;;;;;;5091636;28;20157;-69
2021/06/01 02:16:25;;;;;;;0.43;0.43;;;10.00;99.90;;;;;;5091396;28;20183;-68
2021/06/01 02:18:51;;;;;;;0.20;0.20;;;10.00;99.90;;;;;;5091552;28;20156;-70
2021/06/01 02:22:05;;;;;;;0.10;0.10;;;10.00;99.90;;;;;;5091505;28;20164;-68
2021/06/01 02:24:39;;;;;;;1.75;0.50;;;9.90;99.90;;;;;;5090962;28;20188;-69
2021/06/01 02:27:23;;;;;;;0.45;0.45;;;9.90;99.90;;;;;;5091226;28;20203;-68
2021/06/01 02:30:03;;;;;;;0.10;0.10;;;9.90;99.90;;;;;;5091293;28;20156;-69
2021/06/01 02:32:41;;;;;;;1.23;1.23;;;9.80;99.90;;;;;;5091103;28;20156;-69
2021/06/01 02:35:17;;;;;;;0.43;0.43;;;9.70;99.90;;;;;;5091006;28;20156;-68
2021/06/01 02:37:46;;;;;;;0.30;0.30;;;9.70;99.90;;;;;;5073032;28;20199;-68
2021/06/01 02:40:14;;;;;;;3.25;0.88;;;9.70;99.90;;;;;;5090939;28;20228;-70
2021/06/01 02:42:43;;;;;;;0.10;0.10;;;9.70;99.90;;;;;;5090783;28;20239;-68
2021/06/01 02:45:12;;;;;;;0.38;0.38;;;9.80;99.90;;;;;;5069309;28;20229;-68
2021/06/01 02:47:39;;;;;;;0.28;0.28;;;9.90;99.90;;;;;;5070830;28;20611;-68
2021/06/01 02:50:10;;;;;;;0.70;0.70;;;9.80;99.90;;;;;;5069261;28;20164;-68
2021/06/01 02:52:39;;;;;;;0.38;0.38;;;9.70;99.90;;;;;;5069412;28;20176;-68
2021/06/01 02:55:07;;;;;;;0.20;0.20;;;9.60;99.90;;;;;;5070724;28;20186;-70
2021/06/01 02:57:34;;;;;;;0.43;0.43;;;9.50;99.90;;;;;;5070276;28;20200;-70
2021/06/01 03:00:01;;;;;;;0.32;0.32;;;9.50;99.90;;;;;;5070535;28;20195;-70
2021/06/01 03:02:28;;;;;;;0.38;0.28;;;9.40;99.90;;;;;;5070595;28;20602;-70
2021/06/01 03:04:54;;;;;;;0.20;0.20;;;9.40;99.90;;;;;;5070487;28;20199;-70
2021/06/01 03:07:21;;;;;;;0.40;0.40;;;9.30;99.90;;;;;;5070415;28;20285;-69
2021/06/01 03:09:49;;;;;;;0.70;0.70;;;9.20;99.90;;;;;;5070210;28;20157;-69
2021/06/01 03:12:53;;;;;;;0.85;0.85;;;9.10;99.90;;;;;;5068870;28;20195;-69
2021/06/01 03:15:08;;;;;;;0.22;0.22;;;9.00;99.90;;;;;;5068756;28;20244;-70
2021/06/01 03:17:34;;;;;;;0.15;0.15;;;8.90;99.90;;;;;;5070050;28;20257;-69
2021/06/01 03:20:01;;;;;;;0.10;0.10;;;8.90;99.90;;;;;;5070089;28;20194;-70
2021/06/01 03:22:27;;;;;;;0.25;0.25;;;8.90;99.90;;;;;;5070234;28;20157;-70
2021/06/01 03:24:53;;;;;;;0.30;0.30;;;9.00;99.90;;;;;;5070156;28;20180;-70
2021/06/01 03:27:19;;;;;;;0.22;0.22;;;9.00;99.90;;;;;;5070043;28;20215;-70
2021/06/01 03:29:45;;;;;;;0.20;0.20;;;9.00;99.90;;;;;;5070119;28;20175;-68
2021/06/01 03:32:10;;;;;;;0.38;0.38;;;9.00;99.90;;;;;;5070130;28;20156;-68
2021/06/01 03:34:36;;;;;;;0.10;0.10;;;9.10;99.90;;;;;;5069913;28;20244;-69
2021/06/01 03:37:02;;;;;;;0.93;0.60;;;9.00;99.90;;;;;;5069851;28;20200;-70
2021/06/01 03:39:31;;;;;;;0.10;0.10;;;9.10;99.90;;;;;;5069727;28;20161;-70
2021/06/01 03:41:57;;;;;;;0.77;0.40;;;9.10;99.90;;;;;;5069738;28;20153;-70
2021/06/01 03:44:22;;;;;;;0.20;0.20;;;9.20;99.90;;;;;;5074645;28;20208;-70
2021/06/01 03:46:48;;;;;;;0.15;0.15;;;9.40;99.90;;;;;;5089444;28;20208;-70
2021/06/01 03:49:14;;;;;;;0.45;0.45;;;9.40;99.90;;;;;;5089577;28;20152;-70
2021/06/01 03:51:40;;;;;;;0.93;0.85;;;9.70;99.90;;;;;;5089555;28;20517;-70
2021/06/01 03:54:06;;;;;;;0.38;0.38;;;10.20;99.90;;;;;;5071664;28;20191;-68
2021/06/01 03:56:38;;;;;;;0.35;0.35;;;10.70;99.90;;;;;;5071483;28;20180;-69
2021/06/01 03:59:05;;;;;;;1.80;1.70;;;11.10;99.90;;;;;;5089293;28;20191;-68
2021/06/01 04:01:31;;;;;;;1.33;0.82;;;11.40;99.90;;;;;;5089198;28;20206;-68
2021/06/01 04:03:57;;;;;;;0.20;0.20;;;11.60;99.90;;;;;;5089386;28;20160;-68
2021/06/01 04:06:23;;;;;;;0.10;0.10;;;11.80;99.90;;;;;;5089401;28;20198;-68
2021/06/01 04:08:49;;;;;;;0.50;0.50;;;12.00;99.90;;;;;;5089270;28;20152;-68
2021/06/01 04:11:15;;;;;;;0.43;0.43;;;12.00;99.90;;;;;;5071093;28;20199;-68
2021/06/01 04:13:41;;;;;;;0.85;0.85;;;12.20;99.90;;;;;;5089233;28;20156;-68
2021/06/01 04:16:07;;;;;;;0.30;0.30;;;12.50;99.90;;;;;;5089213;28;20255;-69
2021/06/01 04:18:33;;;;;;;0.22;0.22;;;12.80;99.90;;;;;;5089248;28;20183;-68
2021/06/01 04:21:00;;;;;;;0.15;0.15;;;13.00;99.90;;;;;;5071137;28;20178;-69
2021/06/01 04:23:27;;;;;;;8.00;0.70;;;13.00;99.90;;;;;;5088765;28;20685;-69
2021/06/01 04:25:53;;;;;;;1.02;0.85;;;13.40;99.90;;;;;;5070918;28;20168;-68
2021/06/01 04:28:19;;;;;;;0.20;0.20;;;13.80;99.90;;;;;;5088771;28;20333;-68
2021/06/01 04:30:45;;;;;;;2.05;1.05;;;14.00;99.90;;;;;;5088807;28;20164;-68
2021/06/01 04:33:12;;;;;;;0.40;0.40;;;14.60;99.90;;;;;;5070953;28;20168;-68
2021/06/01 04:35:39;;;;;;;5.65;0.45;;;15.20;99.90;;;;;;5089042;28;20175;-69
2021/06/01 04:38:05;;;;;;;0.40;0.22;;;15.60;99.90;;;;;;5088822;28;20196;-69
2021/06/01 04:40:32;;;;;;;0.38;0.38;;;15.70;99.90;;;;;;5089082;28;20167;-68
2021/06/01 04:42:58;;;;;;;1.38;0.73;;;16.20;99.90;;;;;;5089056;28;20223;-69
2021/06/01 04:45:24;;;;;;;0.90;0.65;;;16.20;99.90;;;;;;5088530;28;20226;-69
2021/06/01 04:47:51;;;;;;;0.70;0.55;;;15.60;99.90;;;;;;5088851;28;20203;-68
2021/06/01 04:50:17;;;;;;;0.35;0.35;;;15.40;99.90;;;;;;5088711;28;20186;-69
2021/06/01 04:52:43;;;;;;;0.80;0.75;;;15.80;99.90;;;;;;5088445;28;20160;-69
2021/06/01 04:55:10;;;;;;;0.65;0.65;;;16.50;99.90;;;;;;5088804;28;20160;-68
2021/06/01 04:57:38;;;;;;;0.47;0.32;;;16.70;99.90;;;;;;5088720;28;20199;-69
2021/06/01 05:00:06;;;;;;;1.75;0.88;;;16.90;99.90;;;;;;5088725;28;20164;-68
2021/06/01 05:02:32;;;;;;;0.38;0.38;;;17.40;99.90;;;;;;5088621;28;20168;-69
2021/06/01 05:04:58;;;;;;;0.30;0.30;;;18.40;99.90;;;;;;5088469;28;20160;-69
2021/06/01 05:07:23;;;;;;;0.90;0.75;;;18.40;99.90;;;;;;5088605;28;20207;-69
2021/06/01 05:09:49;;;;;;;1.67;1.55;;;18.00;99.90;;;;;;5088495;28;20171;-69
2021/06/01 05:12:15;;;;;;;0.55;0.55;;;18.20;99.90;;;;;;5088297;28;20172;-69
2021/06/01 05:14:41;;;;;;;0.17;0.17;;;18.40;99.90;;;;;;5070513;28;20160;-69
2021/06/01 05:17:07;;;;;;;0.70;0.70;;;18.80;99.90;;;;;;5088474;28;20203;-69
2021/06/01 05:19:33;;;;;;;0.55;0.55;;;18.20;99.90;;;;;;5088320;28;20175;-68
2021/06/01 05:21:59;;;;;;;3.42;0.30;;;18.70;99.90;;;;;;5088335;28;20152;-69
2021/06/01 05:24:25;;;;;;;0.80;0.73;;;19.10;99.90;;;;;;5088310;28;20171;-69
2021/06/01 05:26:51;;;;;;;0.55;0.52;;;19.10;99.90;;;;;;5088142;28;20226;-69
2021/06/01 05:29:17;;;;;;;0.43;0.43;;;19.40;99.90;;;;;;5088273;28;20165;-69
2021/06/01 05:34:15;;;;;;;0.90;0.90;;;20.90;99.90;;;;;;5088079;28;20155;-69
2021/06/01 05:36:41;;;;;;;0.20;0.20;;;21.60;99.90;;;;;;5089363;28;20155;-69
2021/06/01 05:39:12;;;;;;;1.65;1.02;;;21.10;99.90;;;;;;5091935;28;20163;-70
2021/06/01 05:41:38;;;;;;;3.85;2.03;;;21.70;99.90;;;;;;5073926;28;20163;-69
2021/06/01 05:44:04;;;;;;;0.32;0.32;;;21.70;99.90;;;;;;5091553;28;20223;-69
2021/06/01 05:46:30;;;;;;;0.35;0.35;;;21.50;99.90;;;;;;5091444;28;20183;-69
2021/06/01 05:48:56;;;;;;;0.63;0.63;;;21.80;99.90;;;;;;5091263;28;20171;-69
2021/06/01 05:51:32;;;;;;;0.98;0.98;;;22.20;99.90;;;;;;5101171;28;20186;-68
2021/06/01 05:53:58;;;;;;;0.60;0.60;;;22.90;99.90;;;;;;5101771;28;20170;-73
2021/06/01 05:56:24;;;;;;;1.08;0.43;;;23.80;99.90;;;;;;5081966;28;20171;-73
2021/06/01 05:58:50;;;;;;;0.50;0.50;;;24.00;99.90;;;;;;5099968;28;20173;-73
2021/06/01 06:01:16;;;;;;;1.75;0.57;;;25.00;99.90;;;;;;5101192;28;20528;-73
2021/06/01 06:03:41;;;;;;;1.52;0.52;;;24.50;99.90;;;;;;5093604;28;20171;-73
2021/06/01 06:06:11;;;;;;;1.75;0.57;;;24.90;99.90;;;;;;5111649;28;20172;-73
2021/06/01 06:08:38;;;;;;;1.02;0.88;;;24.90;99.90;;;;;;5104595;28;20195;-73
2021/06/01 06:11:04;;;;;;;0.43;0.43;;;24.80;99.90;;;;;;5114609;28;20236;-73
2021/06/01 06:13:30;;;;;;;0.13;0.13;;;24.80;99.90;;;;;;5105926;28;20163;-73
2021/06/01 06:15:56;;;;;;;0.35;0.35;;;25.70;99.90;;;;;;5092332;28;20191;-72
2021/06/01 06:18:46;;;;;;;0.60;0.60;;;24.30;99.90;;;;;;5111663;28;20151;-73
2021/06/01 06:21:12;;;;;;;2.05;0.85;;;25.50;99.90;;;;;;5093249;28;20181;-73
2021/06/01 06:23:40;;;;;;;0.25;0.25;;;25.50;99.90;;;;;;5111706;28;20147;-73
2021/06/01 06:26:07;;;;;;;17.35;0.50;;;25.30;99.90;;;;;;5111430;28;20182;-73
2021/06/01 06:28:34;;;;;;;5.68;0.98;;;25.50;99.90;;;;;;5111592;28;20151;-73
2021/06/01 06:31:00;;;;;;;0.65;0.65;;;26.60;99.90;;;;;;5110526;28;20186;-73
2021/06/01 06:33:26;;;;;;;0.98;0.93;;;27.00;99.90;;;;;;5111304;28;20201;-73
2021/06/01 06:35:53;;;;;;;2.45;0.95;;;25.40;99.90;;;;;;5092846;28;20349;-72
2021/06/01 06:38:20;;;;;;;1.05;1.00;;;24.10;99.90;;;;;;5111236;28;20619;-73
2021/06/01 06:41:12;;;;;;;0.60;0.60;;;22.20;99.90;;;;;;5111244;28;20159;-73
2021/06/01 06:43:36;;;;;;;0.50;0.50;;;22.10;99.90;;;;;;5110370;28;20183;-73
2021/06/01 06:46:07;;;;;;;0.57;0.43;;;23.40;99.90;;;;;;5110749;28;20234;-73
2021/06/01 06:48:33;;;;;;;0.77;0.77;;;23.60;99.90;;;;;;5109582;28;20143;-72
2021/06/01 06:51:02;;;;;;;7.78;1.10;;;23.00;99.90;;;;;;5111062;28;20155;-72
2021/06/01 06:53:28;;;;;;;4.32;0.77;;;22.90;99.90;;;;;;5110795;28;20618;-72
2021/06/01 06:55:54;;;;;;;3.03;1.10;;;22.60;99.90;;;;;;5110875;28;20278;-72
2021/06/01 06:58:20;;;;;;;0.52;0.52;;;22.10;99.90;;;;;;5110908;28;20194;-72
2021/06/01 07:00:46;;;;;;;1.05;0.60;;;22.10;99.90;;;;;;5110773;28;20171;-72
2021/06/01 07:03:12;;;;;;;1.02;0.73;;;22.60;99.90;;;;;;5092670;28;20182;-72
2021/06/01 07:05:38;;;;;;;0.35;0.35;;;22.80;99.90;;;;;;5110782;28;20186;-73
2021/06/01 07:08:04;;;;;;;1.55;1.33;;;23.90;99.90;;;;;;5092135;28;20232;-72
2021/06/01 07:10:30;;;;;;;1.42;1.33;;;24.20;99.90;;;;;;5110383;28;20198;-72
2021/06/01 07:13:01;;;;;;;0.80;0.73;;;24.30;99.90;;;;;;5110721;28;20169;-72
2021/06/01 07:15:27;;;;;;;1.17;1.08;;;25.20;99.70;;;;;;5090972;28;20178;-72
2021/06/01 07:17:55;;;;;;;0.80;0.52;;;24.10;99.90;;;;;;5092173;28;20171;-73
2021/06/01 07:20:21;;;;;;;1.02;0.80;;;26.20;99.90;;;;;;5110333;28;20242;-73
2021/06/01 07:22:47;;;;;;;0.30;0.30;;;27.80;98.10;;;;;;5110318;28;20163;-73
2021/06/01 07:25:13;;;;;;;0.25;0.20;;;28.20;97.80;;;;;;5092159;28;20200;-72
2021/06/01 07:27:39;;;;;;;0.93;0.75;;;28.10;94.60;;;;;;5110332;28;20178;-73
2021/06/01 07:30:08;;;;;;;4.15;0.43;;;28.10;94.10;;;;;;5110262;28;20151;-73
2021/06/01 07:32:35;;;;;;;0.38;0.38;;;27.40;93.80;;;;;;5110293;28;20177;-73
2021/06/01 07:35:02;;;;;;;0.95;0.95;;;26.30;95.90;;;;;;5091931;28;20167;-72
2021/06/01 07:37:28;;;;;;;0.82;0.70;;;27.10;95.40;;;;;;5110281;28;20166;-72
2021/06/01 07:39:53;;;;;;;0.63;0.63;;;27.30;95.10;;;;;;5109250;28;20162;-72
2021/06/01 07:42:19;;;;;;;1.15;0.90;;;26.90;95.70;;;;;;5108560;28;20201;-72
2021/06/01 07:44:45;;;;;;;0.20;0.20;;;27.00;95.10;;;;;;5109577;28;20211;-72
2021/06/01 07:47:11;;;;;;;0.75;0.28;;;26.70;95.00;;;;;;5109697;28;20202;-72
2021/06/01 07:49:37;;;;;;;0.65;0.65;;;26.50;95.30;;;;;;5091528;28;20227;-72
2021/06/01 07:52:03;;;;;;;0.75;0.50;;;27.10;95.10;;;;;;5109875;28;20183;-72
2021/06/01 07:54:32;;;;;;;0.60;0.60;;;26.20;95.80;;;;;;5091746;28;20243;-72
2021/06/01 07:56:58;;;;;;;0.60;0.60;;;24.50;96.50;;;;;;5091601;28;20615;-72
2021/06/01 07:59:23;;;;;;;0.98;0.88;;;23.10;98.90;;;;;;5109411;28;20159;-72
2021/06/01 08:01:49;;;;;;;1.10;0.90;;;23.40;99.50;;;;;;5109617;28;20277;-72
2021/06/01 08:04:15;;;;;;;0.43;0.43;;;23.30;99.00;;;;;;5109698;28;20167;-72
2021/06/01 08:06:41;;;;;;;1.13;1.02;;;24.50;98.60;;;;;;5109608;28;20249;-72
2021/06/01 08:09:07;;;;;;;0.50;0.45;;;25.00;98.30;;;;;;5109653;28;20162;-72
2021/06/01 08:11:36;;;;;;;1.10;0.38;;;25.30;96.60;;;;;;5109425;28;20186;-72
2021/06/01 08:14:02;;;;;;;1.10;0.60;;;25.60;96.20;;;;;;5091202;28;20173;-72
2021/06/01 08:16:29;;;;;;;0.75;0.43;;;24.80;97.70;;;;;;5109562;28;20569;-72
2021/06/01 08:24:08;;;;;;;1.02;0.93;;;24.20;96.80;;;;;;5109453;28;20166;-72
2021/06/01 08:26:33;;;;;;;0.30;0.30;;;24.00;99.60;;;;;;5109370;28;20279;-72
2021/06/01 08:28:59;;;;;;;1.55;0.40;;;24.70;95.30;;;;;;5109357;28;20159;-72
2021/06/01 08:31:26;;;;;;;0.55;0.55;;;25.50;96.70;;;;;;5109154;28;20186;-72
2021/06/01 08:33:52;;;;;;;0.55;0.25;;;26.60;95.10;;;;;;5109353;28;20182;-72
2021/06/01 08:36:17;;;;;;;0.47;0.47;;;26.60;94.10;;;;;;5109330;28;20640;-73
2021/06/01 08:38:43;;;;;;;0.32;0.32;;;26.10;97.00;;;;;;5091228;28;20170;-72
2021/06/01 08:41:13;;;;;;;1.65;1.25;;;25.60;94.80;;;;;;5087612;28;20211;-72
2021/06/01 08:43:40;;;;;;;1.00;0.65;;;26.10;94.70;;;;;;5070814;28;20179;-72
2021/06/01 08:46:06;;;;;;;0.22;0.22;;;25.20;94.90;;;;;;5070582;28;20218;-72
2021/06/01 08:48:34;;;;;;;0.63;0.32;;;24.30;97.50;;;;;;5092938;28;20218;-72
2021/06/01 08:51:00;;;;;;;0.15;0.10;;;23.90;97.20;;;;;;5108856;28;20183;-72
2021/06/01 08:53:26;;;;;;;0.60;0.40;;;25.60;97.50;;;;;;5090613;28;20167;-72
2021/06/01 08:55:52;;;;;;;0.32;0.32;;;26.00;95.10;;;;;;5108818;28;20243;-73
2021/06/01 08:58:21;;;;;;;0.30;0.30;;;26.60;95.10;;;;;;5108708;28;20189;-72
2021/06/01 09:00:48;;;;;;;0.20;0.20;;;26.30;95.00;;;;;;5108747;28;20642;-72
2021/06/01 09:03:22;;;;;;;0.73;0.73;;;26.10;95.00;;;;;;5108954;28;20183;-72
2021/06/01 09:08:41;;;;;;;0.40;0.40;;;25.20;95.60;;;;;;5108486;28;20340;-72
2021/06/01 09:22:32;;;;;;;0.98;0.50;;;27.40;93.30;;;;;;5112551;28;20194;-72
2021/06/01 09:25:08;;;;;;;1.85;0.40;;;28.50;91.90;;;;;;5112316;28;20151;-73
2021/06/01 09:27:54;;;;;;;0.10;0.10;;;29.00;91.70;;;;;;5112399;28;20250;-73
2021/06/01 09:30:58;;;;;;;0.93;0.40;;;28.20;91.20;;;;;;5094249;28;20202;-72
2021/06/01 09:33:30;;;;;;;0.45;0.45;;;25.70;92.30;;;;;;5112549;28;20163;-73
2021/06/01 09:36:00;;;;;;;0.20;0.20;;;24.60;94.60;;;;;;5112501;28;20214;-73
2021/06/01 09:38:43;;;;;;;0.10;0.10;;;24.20;93.10;;;;;;5111974;28;20223;-73
2021/06/01 09:41:10;;;;;;;0.43;0.40;;;24.20;93.40;;;;;;5111875;28;20666;-73
2021/06/01 09:43:48;;;;;;;2.72;1.35;;;23.80;93.30;;;;;;5094064;28;20182;-73
2021/06/01 09:46:29;;;;;;;0.25;0.25;;;24.10;94.80;;;;;;5112075;28;20182;-73
2021/06/01 09:49:16;;;;;;;0.15;0.15;;;24.20;94.90;;;;;;5112116;28;20166;-73
2021/06/01 09:51:52;;;;;;;0.28;0.28;;;24.40;94.10;;;;;;5113592;28;20277;-73
2021/06/01 09:54:50;;;;;;;0.52;0.52;;;26.30;92.10;;;;;;5114550;28;20202;-73
2021/06/01 09:57:21;;;;;;;0.22;0.10;;;26.80;91.10;;;;;;5095754;28;20170;-73
2021/06/01 10:00:11;;;;;;;0.68;0.68;;;27.60;90.80;;;;;;5112156;28;20517;-73
2021/06/01 10:02:38;;;;;;;0.30;0.30;;;28.30;91.40;;;;;;5111626;28;20189;-73
2021/06/01 10:05:08;;;;;;;0.35;0.30;;;28.00;90.20;;;;;;5111461;28;20190;-73
2021/06/01 10:07:34;;;;;;;0.20;0.20;;;26.90;92.20;;;;;;5111621;28;20259;-73
2021/06/01 10:10:00;;;;;;;0.75;0.38;;;26.80;92.40;;;;;;5111641;28;20151;-73
2021/06/01 10:12:26;;;;;;;0.82;0.55;;;25.40;91.30;;;;;;5111640;28;20188;-73
2021/06/01 10:14:52;;;;;;;0.10;0.10;;;24.50;93.00;;;;;;5093411;28;20163;-74
2021/06/01 10:17:18;;;;;;;0.05;0.05;;;24.80;92.60;;;;;;5111444;28;20181;-74
2021/06/01 10:19:44;;;;;;;0.30;0.30;;;25.60;93.60;;;;;;5111471;28;20159;-73
2021/06/01 10:22:11;;;;;;;0.70;0.55;;;27.40;91.50;;;;;;5111151;28;20206;-73
2021/06/01 10:24:37;;;;;;;0.55;0.40;;;27.00;90.50;;;;;;5111301;28;20184;-73
2021/06/01 10:27:07;;;;;;;1.02;0.55;;;25.90;91.30;;;;;;5093064;28;20191;-73
2021/06/01 10:29:33;;;;;;;0.10;0.10;;;26.30;91.40;;;;;;5092960;28;20163;-73
2021/06/01 10:31:59;;;;;;;0.30;0.30;;;26.80;92.70;;;;;;5111132;28;20248;-73
2021/06/01 10:34:25;;;;;;;0.45;0.45;;;27.40;89.20;;;;;;5092900;28;20166;-73
2021/06/01 10:42:32;;;;;;;0.20;0.20;;;26.30;90.70;;;;;;5098902;28;20259;-70
2021/06/01 10:50:54;;;;;;;0.43;0.43;;;26.90;91.00;;;;;;5048264;28;20207;-70
2021/06/01 10:53:27;;;;;;;0.10;0.10;;;27.10;91.80;;;;;;5082960;28;20185;-69
2021/06/01 10:55:57;;;;;;;0.22;0.22;;;27.40;88.90;;;;;;5090496;28;20152;-69
2021/06/01 10:58:48;;;;;;;0.30;0.30;;;26.10;90.30;;;;;;5090347;28;20156;-69
2021/06/01 11:04:15;;;;;;;0.32;0.32;;;24.90;91.90;;;;;;5090345;28;20237;-69
2021/06/01 11:06:58;;;;;;;0.10;0.10;;;23.70;93.10;;;;;;5089839;28;20206;-69
2021/06/01 11:09:44;;;;;;;0.20;0.20;;;23.20;93.10;;;;;;5090005;28;20156;-69
2021/06/01 11:12:17;;;;;;;0.08;0.08;;;23.80;93.40;;;;;;5089873;28;20240;-69
2021/06/01 11:14:45;;;;;;;0.20;0.20;;;24.00;93.70;;;;;;5090012;28;20155;-69
2021/06/01 11:17:12;;;;;;;0.47;0.32;;;25.00;91.70;;;;;;5089807;28;20219;-69
2021/06/01 11:20:05;;;;;;;0.40;0.30;;;25.70;92.10;;;;;;5089933;28;20159;-69
2021/06/01 11:22:47;;;;;;;0.20;0.20;;;25.70;91.00;;;;;;5089623;28;20167;-69
2021/06/01 11:33:34;;;;;;;0.55;0.47;;;24.50;91.80;;;;;;5089428;28;20233;-69
2021/06/01 11:36:15;;;;;;;0.15;0.15;;;24.40;91.90;;;;;;5071266;28;20199;-69
2021/06/01 11:43:49;;;;;;;2.80;0.73;;;26.10;92.10;;;;;;5089325;28;20627;-69
2021/06/01 11:47:16;;;;;;;1.48;0.85;;;26.30;90.20;;;;;;5070740;28;20182;-69
2021/06/01 11:51:59;;;;;;;0.10;0.10;;;24.30;91.60;;;;;;5109703;28;20193;-71
2021/06/01 11:54:25;;;;;;;1.17;0.70;;;24.40;91.30;;;;;;5109644;28;20206;-71
2021/06/01 12:20:55;;;;;;;0.13;0.13;;;22.20;93.60;;;;;;5109406;28;20198;-72
2021/06/01 12:23:25;;;;;;;0.20;0.20;;;22.20;94.20;;;;;;5109039;28;20174;-70
2021/06/01 12:26:04;;;;;;;0.57;0.57;;;21.80;93.40;;;;;;5109171;28;20155;-70
2021/06/01 12:31:18;;;;;;;0.10;0.10;;;21.80;93.80;;;;;;5108986;28;20241;-71
2021/06/01 12:34:00;;;;;;;0.13;0.13;;;21.70;93.60;;;;;;5109198;28;20147;-72
2021/06/01 12:43:00;;;;;;;0.32;0.10;;;21.90;93.80;;;;;;5097212;28;20210;-71
2021/06/01 13:08:14;;;;;;;2.65;0.85;;;21.00;94.30;;;;;;5112936;28;20277;-67
2021/06/01 13:19:44;;;;;;;0.10;0.10;;;21.50;94.00;;;;;;5112621;28;20181;-71
2021/06/01 13:22:36;;;;;;;0.38;0.22;;;21.20;93.80;;;;;;5104036;28;20199;-72
2021/06/01 13:38:45;;;;;;;0.10;0.10;;;20.80;94.70;;;;;;5112112;28;20186;-69
2021/06/01 13:46:52;;;;;;;0.20;0.20;;;20.60;95.40;;;;;;5111873;28;20198;-69
2021/06/01 13:57:32;;;;;;;0.60;0.60;;;20.80;95.10;;;;;;5110863;28;20181;-69
2021/06/01 14:21:12;;;;;;;0.10;0.10;;;20.60;94.90;;;;;;5111453;28;20187;-72
2021/06/01 15:04:48;;;;;;;0.17;0.17;;;20.70;97.40;;;;;;5110278;28;20167;-72
2021/06/01 16:13:43;;;;;;;1.05;0.77;;;19.80;96.80;;;;;;5109191;28;20171;-73
2021/06/01 17:05:15;;;;;;;0.22;0.20;;;19.50;97.70;;;;;;5108906;28;20159;-74
2021/06/01 17:13:05;;;;;;;0.10;0.10;;;19.30;98.60;;;;;;5108827;28;20158;-74
2021/06/01 17:15:36;;;;;;;0.73;0.73;;;19.30;97.80;;;;;;5090466;28;20195;-74
2021/06/01 17:18:19;;;;;;;0.10;0.10;;;19.20;97.90;;;;;;5108805;28;20220;-73
2021/06/01 17:36:58;;;;;;;0.28;0.28;;;19.00;98.00;;;;;;5112237;28;20205;-73
2021/06/01 17:39:24;;;;;;;0.10;0.10;;;18.90;98.70;;;;;;5093943;28;20193;-73
2021/06/01 17:41:54;;;;;;;0.40;0.40;;;18.90;99.00;;;;;;5111839;28;20191;-73
2021/06/01 17:44:23;;;;;;;0.38;0.38;;;18.80;98.50;;;;;;5093740;28;20222;-73
2021/06/01 17:46:50;;;;;;;0.90;0.60;;;18.80;98.50;;;;;;5111876;28;20615;-73
2021/06/01 17:49:22;;;;;;;2.28;1.45;;;18.80;98.70;;;;;;5093439;28;20250;-73
2021/06/01 17:51:53;;;;;;;0.77;0.77;;;18.70;99.10;;;;;;5093067;28;20159;-74
2021/06/01 17:54:31;;;;;;;5.15;0.30;;;18.60;98.80;;;;;;5109497;28;20538;-74
2021/06/01 17:56:58;;;;;;;0.20;0.20;;;18.50;99.70;;;;;;5093227;28;20193;-74
2021/06/01 17:59:25;;;;;;;0.30;0.30;;;18.40;99.00;;;;;;5111560;28;20182;-73
2021/06/01 18:01:53;;;;;;;0.10;0.10;;;18.30;99.50;;;;;;5093289;28;20179;-74
2021/06/01 18:04:23;;;;;;;0.50;0.50;;;18.20;99.60;;;;;;5111559;28;20199;-73
2021/06/01 18:06:53;;;;;;;0.13;0.13;;;18.30;99.10;;;;;;5111499;28;20217;-73
2021/06/01 19:01:57;;;;;;;0.85;0.22;;;16.40;99.90;;;;;;5089845;28;20619;-73
2021/06/01 19:50:17;;;;;;;0.05;0.05;;;15.20;99.90;;;;;;5107326;28;20540;-73
2021/06/01 19:52:49;;;;;;;0.00;0.00;;;15.20;99.90;;;;;;5091230;28;20191;-73
2021/06/01 19:55:17;;;;;;;1.02;1.02;;;15.20;99.90;;;;;;5109242;28;20167;-72
2021/06/01 19:57:44;;;;;;;0.73;0.73;;;15.20;99.90;;;;;;5109651;28;20167;-72
2021/06/01 20:00:12;;;;;;;0.10;0.10;;;15.20;99.90;;;;;;5109593;28;20159;-72
2021/06/01 20:02:39;;;;;;;0.22;0.22;;;15.10;99.90;;;;;;5109511;28;20187;-71
2021/06/01 20:05:10;;;;;;;0.73;0.68;;;15.00;99.90;;;;;;5091613;28;20171;-72
2021/06/01 20:07:37;;;;;;;0.40;0.40;;;14.80;99.90;;;;;;5109397;28;20636;-72
2021/06/01 20:10:06;;;;;;;0.55;0.20;;;14.60;99.90;;;;;;5109454;28;20151;-72
2021/06/01 20:12:32;;;;;;;0.10;0.10;;;14.50;99.90;;;;;;5109423;28;20187;-72
2021/06/01 20:14:58;;;;;;;0.75;0.40;;;14.40;99.90;;;;;;5091188;28;20159;-72
2021/06/01 20:17:37;;;;;;;0.47;0.47;;;14.20;99.90;;;;;;5109365;28;20181;-72
2021/06/01 20:20:08;;;;;;;0.43;0.40;;;14.10;99.90;;;;;;5091159;28;20567;-73
2021/06/01 20:22:37;;;;;;;0.50;0.50;;;14.00;99.90;;;;;;5109299;28;20195;-73
2021/06/01 20:25:05;;;;;;;0.40;0.32;;;13.90;99.90;;;;;;5109326;28;20159;-72